This is the latest recevied weather packets stored in our database for station/object LRCT. If no packets are shown the sender has not sent any weather packets the latest 10 day(s).
| Time | Temp. | Humidity | Pressure | Rain* | Wind** | Luminosity | Snow |
|---|---|---|---|---|---|---|---|
| 1788156237 | 18.89° C | 78% | 1019 hPa | - | - | - | - |
| 1788155338 | 16.11° C | 100% | 1019 hPa | - | - | - | - |
| 1788154436 | 16.11° C | 100% | 1019 hPa | - | - | - | - |
| 1788153537 | 16.11° C | 100% | 1019 hPa | - | - | - | - |
| 1788151738 | 15° C | 94% | 1018 hPa | - | - | - | - |
| 1788150841 | 15° C | 94% | 1018 hPa | - | - | - | - |
| 1788149937 | 15° C | 94% | 1018 hPa | - | - | - | - |
| 1788149036 | 15° C | 94% | 1018 hPa | - | - | - | - |
| 1788148137 | 13.89° C | 100% | 1018 hPa | - | - | - | - |
| 1788147237 | 13.89° C | 100% | 1018 hPa | - | - | - | - |
| 1788146337 | 13.89° C | 100% | 1018 hPa | - | - | - | - |
| 1788122037 | 20° C | 69% | 1017 hPa | - | - | - | - |
| 1788120237 | 20° C | 69% | 1017 hPa | - | - | - | - |
| 1788117538 | 22.22° C | 61% | 1017 hPa | - | - | - | - |
| 1788113037 | 22.78° C | 57% | 1017 hPa | - | - | - | - |
| 1788111237 | 27.78° C | 45% | 1016 hPa | - | - | - | - |
| 1788109437 | 27.78° C | 45% | 1016 hPa | - | - | - | - |
| 1788108536 | 28.89° C | 37% | 1016 hPa | - | - | - | - |
| 1788107637 | 28.89° C | 37% | 1016 hPa | - | - | - | - |
| 1788106735 | 28.89° C | 37% | 1016 hPa | - | - | - | - |
| 1788105837 | 28.89° C | 37% | 1016 hPa | - | - | - | - |
| 1788104938 | 30° C | 38% | 1016 hPa | - | - | - | - |
| 1788104037 | 30° C | 38% | 1016 hPa | - | - | - | - |
| 1788103137 | 30° C | 38% | 1016 hPa | - | - | - | - |
| 1788102239 | 30° C | 38% | 1016 hPa | - | - | - | - |
* Rain since midnight (hover to see other rain measurements)
** Current wind speed in m/s (hover to see current wind gust speed)